Time;durP1;ratioP1;P1;durP2;ratioP2;P2;SDS_P1;SDS_P2;PMS_P1;PMS_P2;Temp;Humidity;BMP_temperature;BMP_pressure;BME280_temperature;BME280_humidity;BME280_pressure;Samples;Min_cycle;Max_cycle;Signal;HPM_P1;HPM_P2
2022/05/13 00:01:22;;;;;;;9.40;3.55;;;13.20;99.90;;;;;;5047094;28;20132;-55
2022/05/13 00:03:49;;;;;;;6.07;1.73;;;13.10;99.90;;;;;;5047068;28;20045;-55
2022/05/13 00:06:16;;;;;;;12.15;1.58;;;13.20;99.90;;;;;;5046643;28;20148;-55
2022/05/13 00:08:42;;;;;;;3.55;1.40;;;13.20;99.90;;;;;;5047090;28;20047;-54
2022/05/13 00:11:09;;;;;;;5.15;1.23;;;13.30;99.90;;;;;;5044493;28;20140;-56
2022/05/13 00:13:36;;;;;;;8.27;2.72;;;13.30;99.90;;;;;;5046772;28;20076;-57
2022/05/13 00:16:04;;;;;;;5.20;1.35;;;13.20;99.90;;;;;;5045180;28;20567;-54
2022/05/13 00:18:31;;;;;;;5.13;1.20;;;13.20;99.90;;;;;;5047280;28;20072;-57
2022/05/13 00:20:59;;;;;;;8.02;1.30;;;13.10;99.90;;;;;;5046703;28;20106;-55
2022/05/13 00:23:25;;;;;;;6.95;1.30;;;13.10;99.90;;;;;;5046465;28;20053;-55
2022/05/13 00:25:52;;;;;;;4.10;1.30;;;13.10;99.90;;;;;;5046667;28;20037;-55
2022/05/13 00:28:19;;;;;;;10.95;1.63;;;13.10;99.90;;;;;;5047119;28;20136;-56
2022/05/13 00:30:48;;;;;;;8.25;1.50;;;13.10;99.90;;;;;;5046839;28;20077;-55
2022/05/13 00:33:16;;;;;;;3.75;1.30;;;13.00;99.90;;;;;;5043455;28;20045;-57
2022/05/13 00:35:44;;;;;;;8.18;1.45;;;13.00;99.90;;;;;;5046505;28;20135;-54
2022/05/13 00:38:10;;;;;;;5.28;1.20;;;13.00;99.90;;;;;;5046644;28;20190;-53
2022/05/13 00:40:38;;;;;;;4.28;0.93;;;13.00;99.90;;;;;;5046687;28;20048;-56
2022/05/13 00:43:07;;;;;;;9.15;1.38;;;13.00;99.90;;;;;;5046165;28;20128;-54
2022/05/13 00:45:34;;;;;;;8.88;1.33;;;12.90;99.90;;;;;;5047089;28;20049;-54
2022/05/13 00:48:01;;;;;;;5.80;1.58;;;12.80;99.90;;;;;;5046590;28;20126;-55
2022/05/13 00:50:30;;;;;;;3.70;1.10;;;12.80;99.90;;;;;;5046418;28;20064;-56
2022/05/13 00:52:57;;;;;;;7.90;1.50;;;12.80;99.90;;;;;;5046562;28;20048;-54
2022/05/13 00:55:36;;;;;;;7.50;1.05;;;12.70;99.90;;;;;;5044342;28;21138;-54
2022/05/13 00:58:04;;;;;;;4.93;0.95;;;12.70;99.90;;;;;;5046361;28;20128;-51
2022/05/13 01:00:31;;;;;;;5.43;1.52;;;12.60;99.90;;;;;;5045788;28;20119;-54
2022/05/13 01:02:57;;;;;;;10.93;2.47;;;12.60;99.90;;;;;;5046462;28;20132;-57
2022/05/13 01:05:24;;;;;;;10.50;1.00;;;12.50;99.90;;;;;;5046799;28;20049;-57
2022/05/13 01:07:51;;;;;;;7.95;1.08;;;12.50;99.90;;;;;;5050562;28;20087;-55
2022/05/13 01:10:24;;;;;;;2.58;1.20;;;12.50;99.90;;;;;;5050769;28;20084;-55
2022/05/13 01:12:55;;;;;;;3.85;1.02;;;12.50;99.90;;;;;;5051929;28;20088;-56
2022/05/13 01:15:25;;;;;;;3.65;1.02;;;12.40;99.90;;;;;;5033701;28;20120;-54
2022/05/13 01:18:07;;;;;;;3.63;1.20;;;12.40;99.90;;;;;;5050636;28;20048;-55
2022/05/13 01:20:48;;;;;;;4.05;0.70;;;12.30;99.90;;;;;;5043095;28;20045;-57
2022/05/13 01:23:17;;;;;;;10.00;1.02;;;12.30;99.90;;;;;;5049499;28;20510;-56
2022/05/13 01:25:46;;;;;;;9.82;1.02;;;12.30;99.90;;;;;;5049881;28;20067;-54
2022/05/13 01:28:15;;;;;;;7.25;1.00;;;12.20;99.90;;;;;;5048070;28;20127;-54
2022/05/13 01:30:51;;;;;;;5.75;0.73;;;12.20;99.90;;;;;;5048066;28;20484;-54
2022/05/13 01:33:18;;;;;;;5.88;1.02;;;12.20;99.90;;;;;;5048043;28;20041;-56
2022/05/13 01:35:47;;;;;;;2.17;0.70;;;12.20;99.90;;;;;;5049382;28;20534;-53
2022/05/13 01:38:15;;;;;;;6.90;1.20;;;12.20;99.90;;;;;;5049292;28;20056;-54
2022/05/13 01:40:41;;;;;;;6.97;0.85;;;12.10;99.90;;;;;;5049593;28;20139;-55
2022/05/13 01:43:08;;;;;;;3.45;0.70;;;12.10;99.90;;;;;;5048968;28;20092;-55
2022/05/13 01:45:35;;;;;;;2.25;0.80;;;12.10;99.90;;;;;;5049189;28;20041;-54
2022/05/13 01:48:03;;;;;;;3.22;1.25;;;12.00;99.90;;;;;;5049532;28;20040;-54
2022/05/13 01:50:29;;;;;;;10.68;1.08;;;12.10;99.90;;;;;;5049037;28;20076;-54
2022/05/13 01:52:56;;;;;;;2.03;0.80;;;12.00;99.90;;;;;;5049321;28;20207;-54
2022/05/13 01:55:23;;;;;;;4.63;0.77;;;12.00;99.90;;;;;;5048931;28;20075;-53
2022/05/13 01:57:50;;;;;;;5.47;1.58;;;12.00;99.90;;;;;;5048982;28;20598;-55
2022/05/13 02:00:17;;;;;;;3.50;1.00;;;12.00;99.90;;;;;;5048953;28;20064;-54
2022/05/13 02:05:29;;;;;;;7.45;1.00;;;12.00;99.90;;;;;;5044748;28;20071;-56
2022/05/13 02:07:56;;;;;;;3.85;1.25;;;11.90;99.90;;;;;;5049261;28;20091;-55
2022/05/13 02:10:23;;;;;;;4.00;0.85;;;12.00;99.90;;;;;;5042981;28;20068;-56
2022/05/13 02:12:50;;;;;;;7.78;1.08;;;11.90;99.90;;;;;;5048510;28;20419;-55
2022/05/13 02:15:16;;;;;;;4.80;0.93;;;11.90;99.90;;;;;;5046491;28;20055;-56
2022/05/13 02:17:43;;;;;;;4.45;1.00;;;11.90;99.90;;;;;;5048104;28;20072;-54
2022/05/13 02:20:10;;;;;;;2.47;0.90;;;11.80;99.90;;;;;;5048041;28;20136;-54
2022/05/13 02:22:38;;;;;;;4.20;1.05;;;11.80;99.90;;;;;;5047282;28;20048;-54
2022/05/13 02:25:05;;;;;;;6.97;1.00;;;11.70;99.90;;;;;;5048325;28;20079;-53
2022/05/13 02:27:32;;;;;;;7.05;1.40;;;11.70;99.90;;;;;;5048299;28;20076;-56
2022/05/13 02:29:59;;;;;;;3.05;0.82;;;11.70;99.90;;;;;;5047759;28;20065;-53
2022/05/13 02:32:26;;;;;;;2.67;0.70;;;11.70;99.90;;;;;;5046999;28;20098;-56
2022/05/13 02:34:52;;;;;;;2.90;0.75;;;11.70;99.90;;;;;;5047055;28;20137;-53
2022/05/13 02:37:19;;;;;;;5.55;0.88;;;11.60;99.90;;;;;;5048186;28;20547;-55
2022/05/13 02:39:46;;;;;;;4.97;1.10;;;11.60;99.90;;;;;;5046413;28;20049;-53
2022/05/13 02:42:14;;;;;;;2.85;0.90;;;11.60;99.90;;;;;;5046923;28;20140;-54
2022/05/13 02:44:41;;;;;;;3.30;0.60;;;11.60;99.90;;;;;;5047505;28;20052;-54
2022/05/13 02:47:08;;;;;;;7.07;0.85;;;11.60;99.90;;;;;;5047831;28;20140;-53
2022/05/13 02:49:35;;;;;;;2.80;0.60;;;11.60;99.90;;;;;;5048116;28;20492;-55
2022/05/13 02:52:01;;;;;;;3.30;0.85;;;11.50;99.90;;;;;;5047487;28;20045;-56
2022/05/13 02:54:28;;;;;;;2.90;0.90;;;11.60;99.90;;;;;;5048522;28;20076;-53
2022/05/13 02:56:55;;;;;;;2.97;0.70;;;11.60;99.90;;;;;;5047475;28;20147;-55
2022/05/13 02:59:22;;;;;;;12.38;1.40;;;11.50;99.90;;;;;;5047932;28;20069;-53
2022/05/13 03:01:50;;;;;;;4.35;1.13;;;11.50;99.90;;;;;;5047390;28;20086;-55
2022/05/13 03:04:17;;;;;;;4.70;1.30;;;11.40;99.90;;;;;;5041555;28;20049;-56
2022/05/13 03:06:44;;;;;;;8.05;1.00;;;11.40;99.90;;;;;;5047147;28;20144;-54
2022/05/13 03:09:11;;;;;;;3.35;0.90;;;11.40;99.90;;;;;;5047660;28;20475;-54
2022/05/13 03:11:38;;;;;;;3.38;0.82;;;11.40;99.90;;;;;;5047072;28;20564;-57
2022/05/13 03:14:05;;;;;;;5.55;0.60;;;11.30;99.90;;;;;;5047071;28;20045;-56
2022/05/13 03:16:31;;;;;;;6.18;1.23;;;11.30;99.90;;;;;;5047430;28;20079;-56
2022/05/13 03:18:59;;;;;;;2.90;0.73;;;11.30;99.90;;;;;;5047610;28;20074;-56
2022/05/13 03:21:26;;;;;;;4.28;1.05;;;11.30;99.90;;;;;;5047240;28;20053;-54
2022/05/13 03:23:53;;;;;;;2.20;0.80;;;11.30;99.90;;;;;;5046178;28;20084;-56
2022/05/13 03:26:20;;;;;;;2.85;0.75;;;11.30;99.90;;;;;;5047123;28;20087;-55
2022/05/13 03:28:47;;;;;;;2.40;0.70;;;11.40;99.90;;;;;;5046315;28;20079;-55
2022/05/13 03:31:14;;;;;;;2.20;0.80;;;11.30;99.90;;;;;;5047410;28;20045;-54
2022/05/13 03:33:41;;;;;;;3.45;0.73;;;11.30;99.90;;;;;;5045756;28;20132;-54
2022/05/13 03:36:09;;;;;;;4.32;1.20;;;11.20;99.90;;;;;;5045749;28;20069;-50
2022/05/13 03:38:36;;;;;;;6.30;2.08;;;11.20;99.90;;;;;;5046532;28;20096;-53
2022/05/13 03:41:03;;;;;;;4.45;1.98;;;11.20;99.90;;;;;;5047293;28;20053;-55
2022/05/13 03:43:30;;;;;;;1.75;0.60;;;11.20;99.90;;;;;;5046558;28;20049;-54
2022/05/13 03:45:56;;;;;;;6.88;1.05;;;11.20;99.90;;;;;;5047427;28;20076;-55
2022/05/13 03:48:23;;;;;;;3.30;0.90;;;11.20;99.90;;;;;;5046669;28;20115;-54
2022/05/13 03:50:50;;;;;;;6.13;1.00;;;11.20;99.90;;;;;;5040894;28;20072;-56
2022/05/13 03:53:17;;;;;;;2.65;0.82;;;11.10;99.90;;;;;;5046894;28;20051;-55
2022/05/13 03:55:45;;;;;;;3.10;0.85;;;11.10;99.90;;;;;;5046566;28;20080;-55
2022/05/13 03:58:12;;;;;;;5.25;1.10;;;11.10;99.90;;;;;;5046425;28;20045;-56
2022/05/13 04:00:39;;;;;;;6.13;0.93;;;11.10;99.90;;;;;;5045617;28;20076;-54
2022/05/13 04:03:06;;;;;;;3.78;1.00;;;11.10;99.90;;;;;;5035808;28;20044;-54
2022/05/13 04:11:04;;;;;;;9.60;1.15;;;11.10;99.90;;;;;;5037684;28;20091;-55
2022/05/13 04:16:16;;;;;;;3.63;0.95;;;11.10;99.90;;;;;;5046962;28;20077;-54
2022/05/13 04:18:46;;;;;;;5.53;1.05;;;11.10;99.90;;;;;;5046267;28;20083;-56
2022/05/13 04:21:24;;;;;;;7.38;1.50;;;11.10;99.90;;;;;;5046881;28;20055;-56
2022/05/13 04:23:54;;;;;;;12.68;2.17;;;11.10;99.90;;;;;;5046453;28;20051;-55
2022/05/13 04:26:21;;;;;;;6.15;1.00;;;11.00;99.90;;;;;;5046621;28;20045;-53
2022/05/13 04:28:48;;;;;;;8.02;1.27;;;11.00;99.90;;;;;;5045995;28;20041;-60
2022/05/13 04:31:18;;;;;;;16.55;1.40;;;11.10;99.90;;;;;;5046511;28;20140;-55
2022/05/13 04:33:45;;;;;;;7.32;1.02;;;11.10;99.90;;;;;;5044889;28;20041;-55
2022/05/13 04:36:12;;;;;;;5.82;1.52;;;11.10;99.90;;;;;;5046494;28;20041;-56
2022/05/13 04:38:38;;;;;;;5.82;1.27;;;11.20;99.90;;;;;;5046380;28;20132;-55
2022/05/13 04:43:51;;;;;;;6.90;1.23;;;11.30;99.90;;;;;;5050432;28;20127;-57
2022/05/13 04:46:18;;;;;;;5.65;1.02;;;11.30;99.90;;;;;;5050221;28;20135;-55
2022/05/13 04:48:47;;;;;;;15.55;1.63;;;11.40;99.90;;;;;;5050801;28;20128;-55
2022/05/13 04:51:14;;;;;;;15.40;2.28;;;11.30;99.90;;;;;;5049835;28;20571;-57
2022/05/13 04:53:40;;;;;;;8.32;1.40;;;11.40;99.90;;;;;;5050342;28;20084;-56
2022/05/13 04:56:08;;;;;;;5.05;1.30;;;11.40;99.90;;;;;;5049443;28;20112;-54
2022/05/13 04:58:34;;;;;;;10.30;1.77;;;11.40;99.90;;;;;;5048972;28;20067;-51
2022/05/13 05:01:01;;;;;;;8.40;1.30;;;11.40;99.90;;;;;;5049689;28;20128;-54
2022/05/13 05:03:29;;;;;;;12.13;2.28;;;11.50;99.90;;;;;;5050143;28;20044;-57
2022/05/13 05:05:57;;;;;;;5.60;1.25;;;11.50;99.90;;;;;;5049354;28;20057;-56
2022/05/13 05:08:24;;;;;;;18.90;3.15;;;11.50;99.90;;;;;;5047123;28;20069;-58
2022/05/13 05:10:50;;;;;;;11.52;1.60;;;11.60;99.90;;;;;;5043053;28;20080;-54
2022/05/13 05:13:28;;;;;;;10.93;1.70;;;11.60;99.90;;;;;;5049725;28;20045;-56
2022/05/13 05:15:55;;;;;;;8.20;1.92;;;11.60;99.90;;;;;;5049751;28;20072;-55
2022/05/13 05:18:22;;;;;;;19.52;2.00;;;11.60;99.90;;;;;;5048331;28;20139;-53
2022/05/13 05:20:49;;;;;;;5.40;1.30;;;11.70;99.90;;;;;;5049742;28;20132;-55
2022/05/13 05:23:20;;;;;;;6.63;1.70;;;11.80;99.90;;;;;;5049775;28;20087;-54
2022/05/13 05:25:47;;;;;;;5.65;1.23;;;11.80;99.90;;;;;;5042530;28;20049;-55
2022/05/13 05:28:14;;;;;;;8.63;1.95;;;11.90;99.90;;;;;;5047913;28;20076;-54
2022/05/13 05:30:41;;;;;;;6.38;1.13;;;11.90;99.90;;;;;;5049196;28;20106;-53
2022/05/13 05:33:08;;;;;;;7.05;1.55;;;12.00;99.90;;;;;;5049901;28;20041;-56
2022/05/13 05:35:35;;;;;;;6.50;1.92;;;12.00;99.90;;;;;;5048583;28;20079;-55
2022/05/13 05:38:02;;;;;;;6.88;1.45;;;12.10;99.90;;;;;;5048934;28;21506;-55
2022/05/13 05:40:29;;;;;;;14.77;1.48;;;12.20;99.90;;;;;;5046895;28;20661;-56
2022/05/13 05:42:55;;;;;;;7.22;1.83;;;12.20;99.90;;;;;;5048867;28;20148;-55
2022/05/13 05:45:22;;;;;;;6.75;1.77;;;12.20;99.90;;;;;;5049156;28;20064;-55
2022/05/13 05:47:49;;;;;;;6.32;1.17;;;12.30;99.90;;;;;;5048536;28;20068;-56
2022/05/13 05:50:18;;;;;;;5.63;1.67;;;12.30;99.90;;;;;;5047879;28;20056;-55
2022/05/13 05:52:45;;;;;;;6.45;1.55;;;12.40;99.90;;;;;;5048430;28;20040;-54
2022/05/13 05:58:02;;;;;;;3.78;1.08;;;12.50;99.90;;;;;;5049251;28;20484;-56
2022/05/13 06:00:29;;;;;;;7.43;1.25;;;12.60;99.90;;;;;;5046240;28;20140;-55
2022/05/13 06:02:56;;;;;;;8.23;1.55;;;12.60;99.90;;;;;;5047901;28;20154;-55
2022/05/13 06:05:23;;;;;;;11.27;1.63;;;12.70;99.90;;;;;;5049110;28;20061;-52
2022/05/13 06:07:51;;;;;;;10.82;1.52;;;12.80;99.90;;;;;;5048949;28;20524;-56
2022/05/13 06:10:18;;;;;;;8.95;1.65;;;12.80;99.90;;;;;;5047654;28;20073;-54
2022/05/13 06:12:45;;;;;;;9.80;2.00;;;12.80;99.90;;;;;;5048367;28;20151;-56
2022/05/13 06:15:12;;;;;;;11.50;1.65;;;12.90;99.90;;;;;;5048308;28;20136;-56
2022/05/13 06:17:57;;;;;;;12.82;2.60;;;12.90;99.90;;;;;;5047469;28;20080;-52
2022/05/13 06:20:28;;;;;;;8.07;1.52;;;12.90;99.90;;;;;;5048199;28;20132;-51
2022/05/13 06:22:55;;;;;;;5.78;1.33;;;12.90;99.90;;;;;;5048633;28;20494;-49
2022/05/13 06:25:22;;;;;;;5.60;1.67;;;12.90;99.90;;;;;;5046357;28;20358;-54
2022/05/13 06:27:49;;;;;;;7.65;1.33;;;12.90;99.90;;;;;;5048033;28;20068;-53
2022/05/13 06:30:21;;;;;;;8.15;1.10;;;12.90;99.90;;;;;;5048248;28;20135;-55
2022/05/13 06:32:47;;;;;;;15.55;1.67;;;13.00;99.90;;;;;;5040309;28;20052;-52
2022/05/13 06:35:15;;;;;;;7.53;2.13;;;13.00;99.90;;;;;;5046153;28;20087;-58
2022/05/13 06:37:44;;;;;;;9.23;2.42;;;13.00;99.90;;;;;;5047359;28;20056;-56
2022/05/13 06:40:10;;;;;;;12.15;1.90;;;13.00;99.90;;;;;;5047310;28;20069;-55
2022/05/13 06:42:38;;;;;;;8.23;1.88;;;13.00;99.90;;;;;;5047199;28;20044;-56
2022/05/13 06:45:05;;;;;;;12.05;1.80;;;13.00;99.90;;;;;;5046670;28;20140;-54
2022/05/13 06:47:32;;;;;;;7.90;1.70;;;13.10;99.90;;;;;;5044937;28;20487;-55
2022/05/13 06:50:01;;;;;;;13.00;2.50;;;13.10;99.90;;;;;;5046031;28;20120;-54
2022/05/13 06:52:27;;;;;;;12.57;1.98;;;13.10;99.90;;;;;;5047405;28;20136;-53
2022/05/13 06:55:11;;;;;;;8.23;1.60;;;13.20;99.90;;;;;;5030969;28;20803;-55
2022/05/13 06:57:37;;;;;;;7.35;1.77;;;13.20;99.90;;;;;;5046766;28;20148;-56
2022/05/13 07:00:08;;;;;;;7.10;1.98;;;13.20;99.90;;;;;;5047580;28;20060;-55
2022/05/13 07:02:35;;;;;;;14.70;2.80;;;13.30;99.90;;;;;;5047749;28;20045;-56
2022/05/13 07:05:03;;;;;;;11.98;2.17;;;13.30;99.90;;;;;;5044885;28;20056;-55
2022/05/13 07:07:30;;;;;;;10.13;2.50;;;13.40;99.90;;;;;;5045222;28;20052;-54
2022/05/13 07:09:57;;;;;;;8.35;2.13;;;13.40;99.90;;;;;;5046795;28;20045;-52
2022/05/13 07:12:24;;;;;;;10.60;2.60;;;13.40;99.90;;;;;;5047440;28;20152;-56
2022/05/13 07:14:50;;;;;;;13.43;2.70;;;13.50;99.90;;;;;;5047072;28;20132;-57
2022/05/13 07:17:17;;;;;;;9.07;2.15;;;13.60;99.90;;;;;;5047352;28;20098;-55
2022/05/13 07:19:44;;;;;;;14.63;2.92;;;13.70;99.90;;;;;;5046986;28;20072;-57
2022/05/13 07:22:11;;;;;;;9.38;2.25;;;13.80;99.90;;;;;;5046951;28;20080;-54
2022/05/13 07:24:38;;;;;;;9.13;2.60;;;13.80;99.90;;;;;;5046301;28;20456;-55
2022/05/13 07:27:05;;;;;;;14.60;3.67;;;13.90;99.90;;;;;;5046316;28;20080;-55
2022/05/13 07:29:32;;;;;;;9.45;2.70;;;14.00;99.90;;;;;;5038806;28;20041;-56
2022/05/13 07:31:59;;;;;;;8.52;2.30;;;14.10;99.90;;;;;;5046905;28;20147;-55
2022/05/13 07:34:26;;;;;;;11.68;2.15;;;14.10;99.90;;;;;;5046358;28;20041;-53
2022/05/13 07:36:53;;;;;;;8.85;2.08;;;14.10;99.90;;;;;;5045636;28;20080;-55
2022/05/13 07:42:08;;;;;;;8.07;2.25;;;13.90;99.90;;;;;;5043849;28;20408;-60
2022/05/13 07:44:35;;;;;;;10.60;3.38;;;13.90;99.90;;;;;;5043553;28;20088;-55
2022/05/13 07:47:03;;;;;;;17.52;2.83;;;13.90;99.90;;;;;;5044519;28;20132;-56
2022/05/13 07:49:30;;;;;;;11.40;1.58;;;13.90;99.90;;;;;;5044844;28;20055;-55
2022/05/13 07:51:56;;;;;;;8.60;2.83;;;13.90;99.90;;;;;;5043220;28;20136;-53
2022/05/13 07:54:23;;;;;;;8.52;2.45;;;14.00;99.90;;;;;;5041238;28;20128;-56
2022/05/13 07:56:50;;;;;;;5.32;1.70;;;14.10;99.90;;;;;;5025433;28;20055;-56
2022/05/13 07:59:17;;;;;;;14.40;2.40;;;14.20;99.90;;;;;;5044122;28;20139;-54
2022/05/13 08:01:44;;;;;;;15.27;2.30;;;14.30;99.90;;;;;;5040148;28;20041;-53
2022/05/13 08:04:11;;;;;;;10.85;2.90;;;14.40;99.90;;;;;;5042562;28;20140;-55
2022/05/13 08:06:40;;;;;;;10.13;2.55;;;14.50;99.90;;;;;;5042077;28;20057;-55
2022/05/13 08:09:07;;;;;;;10.20;2.33;;;14.60;99.90;;;;;;5042429;28;20518;-56
2022/05/13 08:11:34;;;;;;;10.88;2.03;;;14.60;99.90;;;;;;5032550;28;20455;-55
2022/05/13 08:14:06;;;;;;;6.40;2.55;;;14.60;99.90;;;;;;5033513;28;20115;-57
2022/05/13 08:16:35;;;;;;;12.60;2.63;;;14.50;99.90;;;;;;5050397;28;20072;-56
2022/05/13 08:19:02;;;;;;;11.15;2.88;;;14.50;99.90;;;;;;5050486;28;20563;-55
2022/05/13 08:21:29;;;;;;;9.10;1.92;;;14.50;99.90;;;;;;5049181;28;20041;-54
2022/05/13 08:23:56;;;;;;;5.32;1.67;;;14.50;99.90;;;;;;5048295;28;20161;-56
2022/05/13 08:26:23;;;;;;;12.10;2.03;;;14.60;99.90;;;;;;5047468;28;20037;-54
2022/05/13 08:28:50;;;;;;;8.55;1.52;;;14.40;99.90;;;;;;5045132;28;20055;-56
2022/05/13 08:31:16;;;;;;;8.43;1.63;;;14.40;99.90;;;;;;5047702;28;20149;-53
2022/05/13 08:33:43;;;;;;;8.38;2.25;;;14.40;99.90;;;;;;5047798;28;20044;-56
2022/05/13 08:36:14;;;;;;;3.92;1.20;;;14.50;99.90;;;;;;5048313;28;20147;-55
2022/05/13 08:38:43;;;;;;;7.35;1.77;;;14.40;99.90;;;;;;5048525;28;20080;-54
2022/05/13 08:41:10;;;;;;;4.55;1.48;;;14.30;99.90;;;;;;5047348;28;20048;-51
2022/05/13 08:43:47;;;;;;;2.88;1.20;;;14.40;99.90;;;;;;5048778;28;20045;-57
2022/05/13 08:46:17;;;;;;;8.63;1.90;;;14.30;99.90;;;;;;5047649;28;20434;-54
2022/05/13 08:48:53;;;;;;;13.60;2.83;;;14.30;99.90;;;;;;5045990;28;20529;-57
2022/05/13 08:51:54;;;;;;;4.40;1.30;;;14.30;99.90;;;;;;5030328;28;20132;-58
2022/05/13 08:54:23;;;;;;;8.80;1.70;;;14.20;99.90;;;;;;5046888;28;20060;-54
2022/05/13 08:56:51;;;;;;;11.73;1.50;;;14.20;99.90;;;;;;5048155;28;20135;-55
2022/05/13 08:59:28;;;;;;;8.48;2.15;;;14.10;99.90;;;;;;5047672;28;20147;-58
2022/05/13 09:02:01;;;;;;;8.65;1.60;;;14.10;99.90;;;;;;5047042;28;20131;-57
2022/05/13 09:04:41;;;;;;;6.68;1.95;;;14.10;99.90;;;;;;5047156;28;20041;-56
2022/05/13 09:07:12;;;;;;;5.85;1.92;;;14.10;99.90;;;;;;5045483;28;20163;-56
2022/05/13 09:09:41;;;;;;;12.93;1.60;;;14.20;99.90;;;;;;5047027;28;20049;-55
2022/05/13 09:12:29;;;;;;;12.27;3.95;;;14.20;99.90;;;;;;5055463;28;20136;-54
2022/05/13 09:15:07;;;;;;;8.63;1.73;;;14.30;99.90;;;;;;5046700;28;20080;-54
2022/05/13 09:17:42;;;;;;;8.18;2.28;;;14.30;99.90;;;;;;5045718;28;20102;-55
2022/05/13 09:20:14;;;;;;;10.20;2.03;;;14.30;99.90;;;;;;5046298;28;20053;-58
2022/05/13 09:22:42;;;;;;;14.05;2.00;;;14.40;99.90;;;;;;5047791;28;20037;-57
2022/05/13 09:25:17;;;;;;;9.10;3.10;;;14.60;99.90;;;;;;5048721;28;20176;-57
2022/05/13 09:27:50;;;;;;;9.23;2.17;;;14.60;99.90;;;;;;5047375;28;20045;-56
2022/05/13 09:30:19;;;;;;;6.03;1.77;;;14.70;99.90;;;;;;5042391;28;20064;-57
2022/05/13 09:32:46;;;;;;;6.53;1.98;;;14.80;99.90;;;;;;5044226;28;20168;-57
2022/05/13 09:35:23;;;;;;;8.43;2.10;;;15.00;99.90;;;;;;5044661;28;20144;-56
2022/05/13 09:37:50;;;;;;;13.82;3.10;;;15.00;99.90;;;;;;5043137;28;20056;-56
2022/05/13 09:40:17;;;;;;;11.45;3.25;;;15.10;99.90;;;;;;5042822;28;20455;-56
2022/05/13 09:42:45;;;;;;;14.07;2.45;;;15.10;99.90;;;;;;5044569;28;20139;-55
2022/05/13 09:45:16;;;;;;;7.78;2.22;;;15.10;99.90;;;;;;5044613;28;20048;-55
2022/05/13 09:47:44;;;;;;;15.60;2.53;;;15.20;99.90;;;;;;5044673;28;20167;-55
2022/05/13 09:50:23;;;;;;;9.15;2.03;;;15.30;99.90;;;;;;5023971;28;20049;-54
2022/05/13 09:52:51;;;;;;;11.25;2.70;;;15.40;99.90;;;;;;5042399;28;20471;-51
2022/05/13 09:55:35;;;;;;;18.83;2.88;;;15.50;99.90;;;;;;5034851;28;20052;-52
2022/05/13 09:58:04;;;;;;;5.57;1.30;;;15.50;99.40;;;;;;5042739;28;20101;-53
2022/05/13 10:00:35;;;;;;;10.13;2.10;;;15.40;99.30;;;;;;5044492;28;20760;-55
2022/05/13 10:03:37;;;;;;;11.98;2.20;;;15.60;99.80;;;;;;5044307;28;20099;-54
2022/05/13 10:06:20;;;;;;;8.75;1.90;;;15.60;98.30;;;;;;5039647;28;20071;-55
2022/05/13 10:08:54;;;;;;;9.32;3.63;;;15.70;99.10;;;;;;5043510;28;20095;-55
2022/05/13 10:14:34;;;;;;;9.45;2.40;;;16.00;98.00;;;;;;5043722;28;20199;-55
2022/05/13 10:17:24;;;;;;;9.20;1.70;;;16.10;97.70;;;;;;5042457;28;20045;-57
2022/05/13 10:19:54;;;;;;;8.63;2.42;;;16.20;98.50;;;;;;5042631;28;20115;-54
2022/05/13 10:22:46;;;;;;;8.60;2.17;;;16.20;97.60;;;;;;5043027;28;20131;-55
2022/05/13 10:25:29;;;;;;;10.55;2.45;;;16.20;97.10;;;;;;5030951;28;20099;-55
2022/05/13 10:27:57;;;;;;;10.85;2.28;;;16.40;96.90;;;;;;5053556;28;20150;-51
2022/05/13 10:30:34;;;;;;;10.40;2.00;;;16.50;97.50;;;;;;5027409;28;20059;-55
2022/05/13 10:33:22;;;;;;;9.32;1.60;;;16.70;96.80;;;;;;5044467;28;20576;-52
2022/05/13 10:36:12;;;;;;;6.45;1.75;;;16.80;96.40;;;;;;5044261;28;20080;-51
2022/05/13 10:39:01;;;;;;;12.88;2.90;;;16.90;96.10;;;;;;5037905;28;20084;-55
2022/05/13 10:41:45;;;;;;;7.80;1.80;;;16.90;96.80;;;;;;5038328;28;20126;-55
2022/05/13 10:44:11;;;;;;;11.80;1.92;;;16.90;96.40;;;;;;5042681;28;20134;-52
2022/05/13 10:46:46;;;;;;;14.93;2.28;;;17.00;96.10;;;;;;5045369;28;20148;-53
2022/05/13 10:49:38;;;;;;;5.13;1.67;;;17.00;96.70;;;;;;5037323;28;20045;-56
2022/05/13 10:52:20;;;;;;;6.75;1.48;;;17.20;96.70;;;;;;5044559;28;20084;-55
2022/05/13 10:54:54;;;;;;;12.05;3.17;;;17.30;96.10;;;;;;5041946;28;20131;-57
2022/05/13 10:57:27;;;;;;;11.63;2.42;;;17.50;96.50;;;;;;5040720;28;20057;-57
2022/05/13 11:00:00;;;;;;;;;;;17.70;96.30;;;;;;5043579;28;20492;-59
2022/05/13 11:02:57;;;;;;;7.65;2.30;;;17.80;94.30;;;;;;5041861;28;20024;-57
2022/05/13 11:05:39;;;;;;;7.53;1.70;;;17.60;94.10;;;;;;5042827;28;20044;-55
2022/05/13 11:08:19;;;;;;;10.93;1.90;;;17.50;94.20;;;;;;5041098;28;20080;-54
2022/05/13 11:11:12;;;;;;;12.25;2.15;;;17.60;94.70;;;;;;5039699;28;20148;-56
2022/05/13 11:13:52;;;;;;;9.48;2.03;;;17.60;93.80;;;;;;5040086;28;20076;-55
2022/05/13 11:16:54;;;;;;;13.77;2.15;;;17.50;93.70;;;;;;5043151;28;20120;-57
2022/05/13 11:19:27;;;;;;;9.60;1.77;;;17.80;93.80;;;;;;5040796;28;20048;-57
2022/05/13 11:22:23;;;;;;;8.48;2.45;;;17.90;94.10;;;;;;5024260;28;20418;-55
2022/05/13 11:27:52;;;;;;;5.13;1.50;;;18.00;93.00;;;;;;5040952;28;20072;-57
2022/05/13 11:30:28;;;;;;;7.68;1.48;;;18.10;93.20;;;;;;5041797;28;20045;-55
2022/05/13 11:33:03;;;;;;;8.38;1.80;;;18.10;93.30;;;;;;5040907;28;20153;-56
2022/05/13 11:36:02;;;;;;;7.35;2.00;;;17.80;92.40;;;;;;5023985;28;20129;-56
2022/05/13 11:38:54;;;;;;;9.45;1.58;;;17.60;92.90;;;;;;5033043;28;20492;-54
2022/05/13 11:41:22;;;;;;;4.80;1.45;;;17.50;93.70;;;;;;5039646;28;20132;-56
2022/05/13 11:44:09;;;;;;;6.03;1.83;;;17.80;94.00;;;;;;5043623;28;20040;-53
2022/05/13 11:46:50;;;;;;;6.68;2.20;;;17.90;93.30;;;;;;5042089;28;20135;-55
2022/05/13 11:49:33;;;;;;;9.73;1.55;;;18.00;92.60;;;;;;5037084;28;20091;-57
2022/05/13 11:52:49;;;;;;;5.82;1.85;;;18.00;93.00;;;;;;5042062;28;20080;-54
2022/05/13 11:55:47;;;;;;;9.73;2.05;;;18.30;92.50;;;;;;5040451;28;20045;-54
2022/05/13 11:58:45;;;;;;;7.68;2.40;;;18.50;92.10;;;;;;5041719;28;20091;-57
2022/05/13 12:01:12;;;;;;;11.63;2.40;;;18.60;92.00;;;;;;5040555;28;20544;-56
2022/05/13 12:03:39;;;;;;;5.57;1.73;;;18.60;92.10;;;;;;5040148;28;20090;-55
2022/05/13 12:06:10;;;;;;;9.63;2.55;;;18.50;92.70;;;;;;5041949;28;20709;-58
2022/05/13 12:08:41;;;;;;;3.80;1.48;;;18.30;92.70;;;;;;5024521;28;20156;-52
2022/05/13 12:11:32;;;;;;;8.77;2.17;;;18.40;93.00;;;;;;5039527;28;20137;-56
2022/05/13 12:14:13;;;;;;;5.57;1.60;;;18.50;91.80;;;;;;5041041;28;20103;-55
2022/05/13 12:16:52;;;;;;;9.98;1.88;;;18.70;91.70;;;;;;5042413;28;20052;-55
2022/05/13 12:19:37;;;;;;;8.32;1.67;;;18.80;91.40;;;;;;5044992;28;20158;-57
2022/05/13 12:22:11;;;;;;;13.93;1.70;;;18.70;91.30;;;;;;5042519;28;20452;-55
2022/05/13 12:25:01;;;;;;;;;;;18.60;91.50;;;;;;5042840;28;20128;-54
2022/05/13 12:27:40;;;;;;;6.35;1.85;;;18.50;91.00;;;;;;5042274;28;20332;-56
2022/05/13 12:30:31;;;;;;;7.78;1.83;;;18.70;91.40;;;;;;5052418;28;20072;-55
2022/05/13 12:33:29;;;;;;;6.15;1.55;;;18.80;91.60;;;;;;5043495;28;20056;-55
2022/05/13 12:39:04;;;;;;;6.82;1.90;;;18.80;91.90;;;;;;5038407;28;20128;-56
2022/05/13 12:41:43;;;;;;;7.07;1.70;;;18.90;90.90;;;;;;5043412;28;20105;-55
2022/05/13 12:44:32;;;;;;;10.75;2.30;;;19.10;91.30;;;;;;5043679;28;20076;-54
2022/05/13 12:47:15;;;;;;;5.47;1.58;;;19.20;91.20;;;;;;5041122;28;20680;-54
2022/05/13 12:49:53;;;;;;;6.28;1.20;;;19.20;90.60;;;;;;5042843;28;20045;-55
2022/05/13 12:52:29;;;;;;;5.97;1.25;;;19.10;90.90;;;;;;5043907;28;20084;-56
2022/05/13 12:55:05;;;;;;;8.02;1.63;;;19.10;90.40;;;;;;5041067;28;20701;-54
2022/05/13 12:57:35;;;;;;;7.80;2.15;;;19.10;90.90;;;;;;5044724;28;20041;-57
2022/05/13 13:00:08;;;;;;;6.72;1.70;;;19.00;90.80;;;;;;5043173;28;20049;-57
2022/05/13 13:02:34;;;;;;;8.98;1.95;;;19.10;91.20;;;;;;5046485;28;20760;-55
2022/05/13 13:05:07;;;;;;;11.32;2.30;;;19.10;90.80;;;;;;5047135;28;20419;-54
2022/05/13 13:07:35;;;;;;;;;;;19.30;91.20;;;;;;5048060;28;20052;-50
2022/05/13 13:10:02;;;;;;;8.68;1.83;;;19.50;89.60;;;;;;5046714;28;20019;-56
2022/05/13 13:12:40;;;;;;;11.30;1.92;;;19.60;90.60;;;;;;5047295;28;20515;-56
2022/05/13 13:15:32;;;;;;;8.35;1.52;;;19.50;90.00;;;;;;5046559;28;20069;-54
2022/05/13 13:18:01;;;;;;;7.18;1.80;;;19.50;89.00;;;;;;5047377;28;20413;-54
2022/05/13 13:20:29;;;;;;;7.75;1.80;;;19.70;89.40;;;;;;5047191;28;20111;-55
2022/05/13 13:23:03;;;;;;;7.90;1.52;;;19.80;89.90;;;;;;5047062;28;20049;-56
2022/05/13 13:25:37;;;;;;;3.80;1.30;;;19.90;89.30;;;;;;5047128;28;20084;-54
2022/05/13 13:28:06;;;;;;;4.50;1.30;;;19.80;88.50;;;;;;5046235;28;20069;-54
2022/05/13 13:30:33;;;;;;;5.50;1.92;;;19.90;89.00;;;;;;5047395;28;20049;-55
2022/05/13 13:33:06;;;;;;;7.95;1.23;;;20.00;90.20;;;;;;5030929;28;20551;-53
2022/05/13 13:35:35;;;;;;;6.05;1.60;;;20.10;87.70;;;;;;5047630;28;20056;-57